Lubbock, TX (79413)

11:03 PM CDT on June 29, 2015 (GMT -0500)
45th and Quaker | | Change Station
CLOSE
Current Station
Personal Weather Station
Location: Lubbock, TX
Elevation: 3212 ft
Nearby Weather Stations

Elev 3212 ft 33.55 °N, 101.91 °W | Updated 11 minutes ago

Mostly Cloudy
Mostly Cloudy
67.3 °F
Feels Like 67.3 °F
N
0.0
Wind Variable Wind from West

Today
High -- | Low -- °F
--% Chance of Precip.
Yesterday
High -- | Low -- °F
Precip. -- in
6:40 AM 9:01 PM
Waxing Gibbous, 95% visible
Pressure 29.91 in
Visibility 10.0 miles
Clouds Few 6000 ft
Mostly Cloudy 9000 ft
Mostly Cloudy 11000 ft
Mostly Cloudy 21000 ft
Dew Point 63 °F
Humidity 86%
Rainfall 0.20 in
Snow Depth Not available.
UV 0 out of 12
Pollen 4.00 out of 12
Air Quality Not available.
Flu Activity Local Activity
METAR KLBB 300153Z 08005KT 10SM FEW060 BKN090 BKN110 BKN210 23/16 A3006 RMK AO2 WSHFT 0044 RAE18 SLP128 CB DSNT SE MOV S P0001 T02330156

More Conditions Fewer Conditions

Pressure 29.91 in
Visibility 10.0 miles
Clouds Few 6000 ft
Mostly Cloudy 9000 ft
Mostly Cloudy 11000 ft
Mostly Cloudy 21000 ft
Dew Point 63 °F
Humidity 86%
Rainfall 0.20 in
Snow Depth Not available.
UV 0 out of 12
Pollen 4.00 out of 12
Air Quality Not available.
Flu Activity Local Activity
METAR KLBB 300153Z 08005KT 10SM FEW060 BKN090 BKN110 BKN210 23/16 A3006 RMK AO2 WSHFT 0044 RAE18 SLP128 CB DSNT SE MOV S P0001 T02330156

More Conditions Fewer Conditions

10-Day Weather Forecast

×

Almanac

Astronomy

Jun. 29, 2015 Rise Set
Actual Time
Civil Twilight
Nautical Twilight
Astronomical Twilight
Moon
Length of Visible Light
Length of Day
Tomorrow will be .
, % of the Moon is Illuminated

Today's Extremes

State Highs State Lows

Community

WunderPhotos

Upload Photos

1,833,957 photos uploaded!

WunderBlogs® & News

Nearby

Air Quality

  Air Quality AQ Index Pollutant
Not available.

Snow Depth

Station Depth Elevation

Earthquake Activity

City Distance Mag. Time & Date
Minimum magnitude displayed is 2.5.

Coastal Water Temperatures

Place Temperature

Stations

Nearby Weather Stations

Station Location Temp. Windchill Dew Point Humidity Wind Precip. Elev Updated Type